Time;durP1;ratioP1;P1;durP2;ratioP2;P2;SDS_P1;SDS_P2;PMS_P1;PMS_P2;Temp;Humidity;BMP_temperature;BMP_pressure;BME280_temperature;BME280_humidity;BME280_pressure;Samples;Min_cycle;Max_cycle;Signal;HPM_P1;HPM_P2
2023/07/29 00:02:00;;;;;;;6.40;1.80;;;18.30;99.90;;;;;;5014653;28;20547;-80
2023/07/29 00:04:25;;;;;;;3.93;1.93;;;18.40;99.90;;;;;;5013564;28;20200;-80
2023/07/29 00:06:51;;;;;;;2.53;1.77;;;18.30;99.90;;;;;;5012432;28;20318;-80
2023/07/29 00:09:16;;;;;;;4.60;1.80;;;18.30;99.90;;;;;;5014022;28;20173;-80
2023/07/29 00:11:42;;;;;;;2.00;1.63;;;18.30;99.90;;;;;;5013820;28;20193;-79
2023/07/29 00:14:07;;;;;;;6.80;2.13;;;18.40;99.90;;;;;;5014053;28;20505;-80
2023/07/29 00:16:33;;;;;;;3.97;2.10;;;18.30;99.90;;;;;;5013859;28;20184;-80
2023/07/29 00:18:58;;;;;;;8.43;2.17;;;18.40;99.90;;;;;;5012453;28;20188;-80
2023/07/29 00:21:24;;;;;;;4.30;1.80;;;18.30;99.90;;;;;;5013970;28;20259;-80
2023/07/29 00:23:49;;;;;;;3.07;1.77;;;18.20;99.90;;;;;;5014047;28;20328;-80
2023/07/29 00:26:15;;;;;;;4.93;1.63;;;18.20;99.90;;;;;;5014172;28;20235;-80
2023/07/29 00:28:41;;;;;;;8.83;1.73;;;18.20;99.90;;;;;;5012361;28;20260;-80
2023/07/29 00:31:06;;;;;;;12.70;2.13;;;18.20;99.90;;;;;;5013726;28;20575;-80
2023/07/29 00:33:32;;;;;;;4.87;2.10;;;18.20;99.90;;;;;;5012728;28;20522;-80
2023/07/29 00:36:01;;;;;;;5.00;1.93;;;18.20;99.90;;;;;;5012219;28;20201;-80
2023/07/29 00:38:27;;;;;;;2.20;1.60;;;18.10;99.90;;;;;;5013960;28;20165;-80
2023/07/29 00:40:52;;;;;;;3.63;2.30;;;18.00;99.90;;;;;;5013019;28;20684;-80
2023/07/29 00:43:18;;;;;;;5.60;2.40;;;18.10;99.90;;;;;;5016064;28;20285;-80
2023/07/29 00:45:44;;;;;;;3.13;2.00;;;18.10;99.90;;;;;;5017234;28;20239;-80
2023/07/29 00:48:10;;;;;;;4.57;2.33;;;18.10;99.90;;;;;;5016874;28;20580;-80
2023/07/29 00:50:36;;;;;;;7.77;2.20;;;18.20;99.90;;;;;;5017392;28;20193;-80
2023/07/29 00:53:01;;;;;;;4.73;2.20;;;18.30;99.90;;;;;;5017201;28;20608;-80
2023/07/29 00:55:28;;;;;;;9.07;2.27;;;18.20;99.90;;;;;;5017374;28;20633;-80
2023/07/29 00:57:54;;;;;;;9.17;2.40;;;18.20;99.90;;;;;;5016851;28;20231;-79
2023/07/29 01:00:21;;;;;;;3.73;2.10;;;18.20;99.90;;;;;;5015498;28;20193;-80
2023/07/29 01:02:46;;;;;;;4.17;2.00;;;18.20;99.90;;;;;;5016987;28;20247;-79
2023/07/29 01:05:14;;;;;;;11.80;2.20;;;18.20;99.90;;;;;;5017155;28;20574;-80
2023/07/29 01:07:44;;;;;;;6.73;1.80;;;18.30;99.90;;;;;;5015948;28;20173;-79
2023/07/29 01:10:19;;;;;;;2.10;1.90;;;18.20;99.90;;;;;;5017526;28;20280;-78
2023/07/29 01:12:54;;;;;;;6.13;2.50;;;18.10;99.90;;;;;;5017569;28;20165;-80
2023/07/29 01:15:33;;;;;;;9.60;2.00;;;18.20;99.90;;;;;;5017352;28;20163;-80
2023/07/29 01:18:06;;;;;;;4.90;2.40;;;18.20;99.90;;;;;;5017217;28;20157;-80
2023/07/29 01:20:38;;;;;;;6.30;2.13;;;18.20;99.90;;;;;;5017152;28;20192;-80
2023/07/29 01:23:04;;;;;;;5.70;1.90;;;18.20;99.90;;;;;;5016891;28;20188;-80
2023/07/29 01:25:29;;;;;;;5.63;1.90;;;18.20;99.90;;;;;;5017038;28;20173;-80
2023/07/29 01:27:55;;;;;;;3.37;1.67;;;18.20;99.90;;;;;;5015147;28;20177;-80
2023/07/29 01:30:26;;;;;;;4.77;1.90;;;18.10;99.90;;;;;;5014818;28;20201;-80
2023/07/29 01:32:58;;;;;;;8.60;2.03;;;18.20;99.90;;;;;;5016746;28;20150;-80
2023/07/29 01:35:40;;;;;;;5.90;1.77;;;18.20;99.90;;;;;;5015224;28;20196;-80
2023/07/29 01:38:16;;;;;;;5.40;2.23;;;18.10;99.90;;;;;;5016307;28;20169;-79
2023/07/29 01:40:43;;;;;;;5.97;2.23;;;18.20;99.90;;;;;;5015014;28;20192;-80
2023/07/29 01:43:10;;;;;;;4.03;1.90;;;18.20;99.90;;;;;;5014821;28;20193;-80
2023/07/29 01:45:37;;;;;;;11.03;2.10;;;18.20;99.90;;;;;;5015007;28;20272;-78
2023/07/29 01:48:04;;;;;;;4.63;2.00;;;18.20;99.90;;;;;;5017059;28;20169;-80
2023/07/29 01:50:31;;;;;;;7.87;2.27;;;18.20;99.90;;;;;;5015990;28;20235;-79
2023/07/29 01:52:57;;;;;;;8.07;2.27;;;18.20;99.90;;;;;;5014346;28;20216;-80
2023/07/29 01:55:23;;;;;;;5.73;2.30;;;18.20;99.90;;;;;;5016140;28;20640;-80
2023/07/29 01:57:48;;;;;;;7.70;2.60;;;18.30;99.90;;;;;;5016049;28;20625;-79
2023/07/29 02:00:15;;;;;;;5.57;2.47;;;18.20;99.90;;;;;;5015958;28;20196;-80
2023/07/29 02:02:41;;;;;;;7.60;2.60;;;18.30;99.90;;;;;;5014404;28;20649;-79
2023/07/29 02:05:07;;;;;;;7.93;2.40;;;18.20;99.90;;;;;;5015922;28;20200;-80
2023/07/29 02:07:32;;;;;;;4.90;2.20;;;18.30;99.90;;;;;;5016075;28;20169;-80
2023/07/29 02:09:58;;;;;;;4.43;2.20;;;18.30;99.90;;;;;;5014654;28;20193;-80
2023/07/29 02:12:24;;;;;;;12.77;2.50;;;18.30;99.90;;;;;;5016189;28;20165;-80
2023/07/29 02:14:49;;;;;;;8.77;2.53;;;18.30;99.90;;;;;;5014397;28;20176;-80
2023/07/29 02:17:15;;;;;;;5.80;2.33;;;18.30;99.90;;;;;;5013852;28;20181;-80
2023/07/29 02:19:41;;;;;;;5.00;2.20;;;18.30;99.90;;;;;;5015809;28;20244;-80
2023/07/29 02:22:06;;;;;;;5.90;2.17;;;18.30;99.90;;;;;;5014023;28;20216;-80
2023/07/29 02:24:32;;;;;;;5.13;2.70;;;18.30;99.90;;;;;;5015526;28;20247;-79
2023/07/29 02:26:57;;;;;;;6.23;2.77;;;18.30;99.90;;;;;;5015340;28;20180;-80
2023/07/29 02:29:24;;;;;;;7.67;2.73;;;18.30;99.90;;;;;;5015816;28;20227;-80
2023/07/29 02:31:50;;;;;;;7.47;2.50;;;18.30;99.90;;;;;;5014307;28;20630;-80
2023/07/29 02:34:16;;;;;;;9.93;3.30;;;18.40;99.90;;;;;;5015187;28;20283;-80
2023/07/29 02:36:41;;;;;;;5.93;2.63;;;18.40;99.90;;;;;;5013704;28;20306;-80
2023/07/29 02:39:07;;;;;;;10.53;3.30;;;18.40;99.90;;;;;;5015272;28;20251;-80
2023/07/29 02:41:32;;;;;;;2.70;2.50;;;18.30;99.90;;;;;;5013647;28;20613;-79
2023/07/29 02:43:58;;;;;;;4.03;2.80;;;18.40;99.90;;;;;;5014863;28;20208;-80
2023/07/29 02:46:23;;;;;;;5.17;3.40;;;18.40;99.90;;;;;;5015239;28;20169;-80
2023/07/29 02:48:50;;;;;;;5.50;3.43;;;18.40;99.90;;;;;;5014989;28;20265;-80
2023/07/29 02:51:15;;;;;;;3.23;2.93;;;18.40;99.90;;;;;;5013415;28;20287;-80
2023/07/29 02:53:41;;;;;;;5.90;3.17;;;18.40;99.90;;;;;;5014986;28;20200;-79
2023/07/29 02:56:09;;;;;;;5.93;3.50;;;18.50;99.90;;;;;;5013652;28;20227;-80
2023/07/29 02:58:34;;;;;;;4.43;4.00;;;18.50;99.90;;;;;;5014698;28;20207;-80
2023/07/29 03:01:05;;;;;;;4.70;3.80;;;18.50;99.90;;;;;;5015250;28;20201;-80
2023/07/29 03:03:31;;;;;;;8.77;4.13;;;18.60;99.90;;;;;;5014874;28;20212;-79
2023/07/29 03:06:05;;;;;;;5.17;3.60;;;18.60;99.90;;;;;;5014020;28;20181;-80
2023/07/29 03:08:31;;;;;;;6.93;3.73;;;18.60;99.90;;;;;;5015303;28;20192;-79
2023/07/29 03:10:57;;;;;;;6.90;3.33;;;18.50;99.90;;;;;;5014235;28;20192;-80
2023/07/29 03:13:23;;;;;;;7.40;3.57;;;18.80;99.90;;;;;;5013236;28;20257;-80
2023/07/29 03:15:49;;;;;;;7.93;3.63;;;18.60;99.90;;;;;;5014744;28;20173;-80
2023/07/29 03:18:15;;;;;;;8.43;3.73;;;18.70;99.90;;;;;;5014719;28;20169;-80
2023/07/29 03:20:41;;;;;;;9.20;3.40;;;18.60;99.90;;;;;;5014671;28;20731;-80
2023/07/29 03:23:06;;;;;;;9.53;3.53;;;18.60;99.90;;;;;;5014970;28;20189;-80
2023/07/29 03:25:32;;;;;;;7.63;3.30;;;18.60;99.90;;;;;;5014759;28;20211;-79
2023/07/29 03:27:58;;;;;;;5.70;3.17;;;18.60;99.90;;;;;;5013265;28;20173;-80
2023/07/29 03:30:23;;;;;;;5.00;3.00;;;18.70;99.90;;;;;;5014333;28;20197;-80
2023/07/29 03:32:49;;;;;;;6.10;3.13;;;18.70;99.90;;;;;;5014848;28;20204;-80
2023/07/29 03:35:15;;;;;;;6.63;3.23;;;18.70;99.90;;;;;;5013724;28;20776;-80
2023/07/29 03:37:41;;;;;;;8.87;3.07;;;18.60;99.90;;;;;;5016776;28;20180;-80
2023/07/29 03:40:07;;;;;;;4.43;2.83;;;18.70;99.90;;;;;;5014263;28;20219;-80
2023/07/29 03:42:33;;;;;;;4.00;2.90;;;18.70;99.90;;;;;;5013805;28;20199;-80
2023/07/29 03:44:58;;;;;;;6.73;2.93;;;18.60;99.90;;;;;;5013243;28;20629;-80
2023/07/29 03:47:24;;;;;;;6.83;3.30;;;18.60;99.90;;;;;;5014883;28;20248;-80
2023/07/29 03:49:50;;;;;;;5.47;3.47;;;18.60;99.90;;;;;;5014664;28;20197;-80
2023/07/29 03:52:15;;;;;;;4.07;3.43;;;18.60;99.90;;;;;;5015293;28;20261;-79
2023/07/29 03:54:40;;;;;;;6.70;3.47;;;18.60;99.90;;;;;;5013169;28;20259;-80
2023/07/29 03:57:06;;;;;;;5.63;3.03;;;18.60;99.90;;;;;;5014500;28;20545;-80
2023/07/29 03:59:33;;;;;;;6.13;3.50;;;18.60;99.90;;;;;;5014481;28;20255;-79
2023/07/29 04:01:58;;;;;;;5.37;3.60;;;18.60;99.90;;;;;;5013256;28;20181;-80
2023/07/29 04:04:24;;;;;;;5.93;4.10;;;18.60;99.90;;;;;;5014557;28;20604;-80
2023/07/29 04:06:49;;;;;;;7.67;4.13;;;18.80;99.90;;;;;;5014279;28;20637;-80
2023/07/29 04:09:15;;;;;;;6.73;4.07;;;18.60;99.90;;;;;;5013849;28;20173;-80
2023/07/29 04:11:40;;;;;;;6.43;4.57;;;18.60;99.90;;;;;;5012587;28;20246;-80
2023/07/29 04:14:06;;;;;;;4.80;4.40;;;18.60;99.90;;;;;;5013840;28;20177;-80
2023/07/29 04:16:32;;;;;;;7.13;4.77;;;18.60;99.90;;;;;;5017550;28;20565;-80
2023/07/29 04:18:57;;;;;;;4.80;4.10;;;18.60;99.90;;;;;;5018208;28;20165;-80
2023/07/29 04:21:23;;;;;;;7.33;4.23;;;18.50;99.90;;;;;;5016337;28;20201;-79
2023/07/29 04:23:48;;;;;;;6.17;4.37;;;18.60;99.90;;;;;;5018308;28;20207;-80
2023/07/29 04:26:14;;;;;;;6.43;4.00;;;18.40;99.90;;;;;;5016405;28;20208;-80
2023/07/29 04:28:39;;;;;;;5.23;4.20;;;18.50;99.90;;;;;;5016782;28;20208;-80
2023/07/29 04:31:05;;;;;;;8.83;4.27;;;18.40;99.90;;;;;;5016218;28;20193;-80
2023/07/29 04:33:30;;;;;;;6.13;4.03;;;18.50;99.90;;;;;;5017759;28;20173;-79
2023/07/29 04:35:56;;;;;;;8.50;4.13;;;18.40;99.90;;;;;;5018091;28;20200;-80
2023/07/29 04:38:24;;;;;;;5.50;4.50;;;18.40;99.90;;;;;;5018226;28;20184;-80
2023/07/29 04:40:50;;;;;;;8.47;4.37;;;18.40;99.90;;;;;;5016786;28;20291;-80
2023/07/29 04:43:15;;;;;;;11.77;5.40;;;18.60;99.90;;;;;;5017976;28;20236;-80
2023/07/29 04:45:44;;;;;;;9.10;5.23;;;18.40;99.90;;;;;;5016469;28;20185;-80
2023/07/29 04:48:09;;;;;;;8.50;4.97;;;18.30;99.90;;;;;;5018029;28;20169;-79
2023/07/29 04:50:36;;;;;;;9.17;5.50;;;18.30;99.90;;;;;;5016805;28;20316;-79
2023/07/29 04:53:02;;;;;;;11.23;6.20;;;18.30;99.90;;;;;;5016393;28;20264;-80
2023/07/29 04:55:27;;;;;;;10.87;5.83;;;18.30;99.90;;;;;;5017663;28;20180;-79
2023/07/29 04:57:53;;;;;;;6.70;4.73;;;18.30;99.90;;;;;;5016396;28;20528;-80
2023/07/29 05:00:18;;;;;;;8.73;4.60;;;18.30;99.90;;;;;;5016101;28;20200;-80
2023/07/29 05:02:44;;;;;;;8.70;4.87;;;18.20;99.90;;;;;;5016912;28;20188;-79
2023/07/29 05:05:09;;;;;;;7.43;4.93;;;18.20;99.90;;;;;;5017648;28;20184;-80
2023/07/29 05:07:35;;;;;;;8.33;4.43;;;18.20;99.90;;;;;;5016505;28;20648;-80
2023/07/29 05:10:01;;;;;;;5.77;5.10;;;18.20;99.90;;;;;;5016049;28;20193;-80
2023/07/29 05:12:26;;;;;;;5.30;4.67;;;18.20;99.90;;;;;;5016243;28;20176;-79
2023/07/29 05:14:52;;;;;;;6.17;4.63;;;18.30;99.90;;;;;;5016297;28;20268;-80
2023/07/29 05:17:17;;;;;;;5.33;4.43;;;18.20;99.90;;;;;;5017629;28;20208;-80
2023/07/29 05:19:43;;;;;;;8.67;5.20;;;18.40;99.90;;;;;;5015729;28;20263;-80
2023/07/29 05:22:10;;;;;;;4.23;3.83;;;18.30;99.90;;;;;;5017457;28;20177;-79
2023/07/29 05:24:35;;;;;;;4.33;3.93;;;18.20;99.90;;;;;;5016654;28;20600;-80
2023/07/29 05:27:01;;;;;;;7.70;4.33;;;18.20;99.90;;;;;;5015596;28;20165;-78
2023/07/29 05:29:26;;;;;;;4.63;4.17;;;18.20;99.90;;;;;;5016314;28;20200;-79
2023/07/29 05:31:52;;;;;;;4.80;3.47;;;18.20;99.90;;;;;;5016365;28;20251;-78
2023/07/29 05:34:17;;;;;;;5.87;3.57;;;18.10;99.90;;;;;;5016272;28;20574;-78
2023/07/29 05:36:43;;;;;;;5.00;2.83;;;18.10;99.90;;;;;;5016677;28;20248;-78
2023/07/29 05:39:08;;;;;;;3.53;2.90;;;18.00;99.90;;;;;;5016041;28;20177;-77
2023/07/29 05:41:34;;;;;;;2.93;2.63;;;18.00;99.90;;;;;;5014877;28;20673;-78
2023/07/29 05:43:59;;;;;;;5.13;2.80;;;18.00;99.90;;;;;;5015204;28;20677;-79
2023/07/29 05:46:25;;;;;;;3.50;3.13;;;18.00;99.90;;;;;;5015176;28;20271;-78
2023/07/29 05:48:50;;;;;;;4.10;2.90;;;18.00;99.90;;;;;;5016469;28;20177;-78
2023/07/29 05:51:16;;;;;;;6.43;2.93;;;18.00;99.90;;;;;;5015523;28;20235;-78
2023/07/29 05:53:41;;;;;;;4.50;3.83;;;18.00;99.90;;;;;;5026813;28;20201;-77
2023/07/29 05:56:07;;;;;;;3.77;3.37;;;18.00;99.90;;;;;;5022644;28;20557;-78
2023/07/29 05:58:33;;;;;;;5.27;3.70;;;18.00;99.90;;;;;;5015551;28;20661;-78
2023/07/29 06:00:58;;;;;;;4.40;3.80;;;18.00;99.90;;;;;;5015953;28;20196;-78
2023/07/29 06:03:24;;;;;;;4.30;3.40;;;18.00;99.90;;;;;;5015552;28;20232;-78
2023/07/29 06:05:50;;;;;;;5.33;3.43;;;18.00;99.90;;;;;;5014061;28;20176;-78
2023/07/29 06:08:15;;;;;;;4.20;3.77;;;18.10;99.90;;;;;;5014569;28;20192;-77
2023/07/29 06:10:41;;;;;;;5.77;3.43;;;18.10;99.90;;;;;;5015487;28;20197;-78
2023/07/29 06:13:06;;;;;;;6.13;3.40;;;18.20;99.90;;;;;;5015816;28;20214;-78
2023/07/29 06:15:32;;;;;;;5.97;3.60;;;18.10;99.90;;;;;;5015094;28;20238;-78
2023/07/29 06:17:57;;;;;;;4.00;2.80;;;18.10;99.90;;;;;;5015121;28;20185;-78
2023/07/29 06:20:23;;;;;;;2.93;2.63;;;18.10;99.90;;;;;;5014319;28;20219;-78
2023/07/29 06:22:49;;;;;;;5.20;3.43;;;18.10;99.90;;;;;;5014803;28;20181;-78
2023/07/29 06:25:14;;;;;;;5.10;3.20;;;18.10;99.90;;;;;;5013581;28;20183;-78
2023/07/29 06:27:40;;;;;;;6.87;3.43;;;18.10;99.90;;;;;;5013760;28;20537;-78
2023/07/29 06:30:06;;;;;;;3.90;3.37;;;18.10;99.90;;;;;;5006982;28;20760;-79
2023/07/29 06:32:31;;;;;;;5.17;3.43;;;18.10;99.90;;;;;;5013284;28;20649;-78
2023/07/29 06:34:57;;;;;;;4.50;2.87;;;18.10;99.90;;;;;;5013908;28;20196;-78
2023/07/29 06:37:23;;;;;;;6.90;3.00;;;18.10;99.90;;;;;;5014978;28;20268;-78
2023/07/29 06:39:48;;;;;;;2.87;2.50;;;18.10;99.90;;;;;;5013336;28;20563;-78
2023/07/29 06:42:14;;;;;;;3.30;2.73;;;18.10;99.90;;;;;;5012732;28;20276;-78
2023/07/29 06:44:40;;;;;;;5.50;3.40;;;18.30;99.90;;;;;;5014363;28;20208;-78
2023/07/29 06:47:06;;;;;;;5.80;2.53;;;18.30;99.90;;;;;;5013254;28;20181;-78
2023/07/29 06:49:31;;;;;;;2.40;2.07;;;18.30;99.90;;;;;;5014696;28;20206;-78
2023/07/29 06:51:57;;;;;;;2.50;2.20;;;18.40;99.90;;;;;;5013700;28;20216;-78
2023/07/29 06:54:28;;;;;;;2.03;1.80;;;18.40;99.90;;;;;;5013054;28;20184;-78
2023/07/29 06:56:54;;;;;;;8.43;2.30;;;18.40;99.90;;;;;;5014488;28;20184;-78
2023/07/29 06:59:19;;;;;;;2.20;1.90;;;18.50;99.90;;;;;;5014345;28;20497;-78
2023/07/29 07:01:45;;;;;;;3.37;2.17;;;18.50;99.90;;;;;;5013586;28;20209;-78
2023/07/29 07:04:10;;;;;;;2.53;1.80;;;18.50;99.90;;;;;;5015298;28;20304;-79
2023/07/29 07:06:36;;;;;;;3.37;1.90;;;18.40;99.90;;;;;;5013044;28;20187;-79
2023/07/29 07:09:02;;;;;;;2.63;1.80;;;18.40;99.90;;;;;;5014879;28;20208;-77
2023/07/29 07:11:27;;;;;;;5.73;1.60;;;18.40;99.90;;;;;;5014556;28;20280;-78
2023/07/29 07:13:53;;;;;;;5.53;2.20;;;18.50;99.90;;;;;;5014463;28;20204;-78
2023/07/29 07:16:18;;;;;;;4.67;1.57;;;18.60;99.90;;;;;;5012580;28;20216;-75
2023/07/29 07:18:44;;;;;;;3.03;1.53;;;18.60;99.90;;;;;;5011708;28;20239;-76
2023/07/29 07:21:10;;;;;;;2.43;1.77;;;18.60;99.90;;;;;;5013290;28;20283;-79
2023/07/29 07:23:36;;;;;;;2.43;1.80;;;18.70;99.90;;;;;;5014982;28;20291;-79
2023/07/29 07:26:02;;;;;;;2.30;1.47;;;18.70;99.90;;;;;;5015143;28;20552;-79
2023/07/29 07:28:28;;;;;;;2.30;1.37;;;18.70;99.90;;;;;;5013161;28;20176;-79
2023/07/29 07:30:55;;;;;;;4.63;1.53;;;18.70;99.90;;;;;;5014768;28;20204;-79
2023/07/29 07:33:21;;;;;;;3.67;1.70;;;18.80;99.90;;;;;;5013383;28;20184;-79
2023/07/29 07:35:46;;;;;;;3.60;1.40;;;18.90;99.90;;;;;;5014648;28;20204;-79
2023/07/29 07:38:12;;;;;;;2.50;1.20;;;18.90;99.90;;;;;;5015306;28;20200;-79
2023/07/29 07:40:38;;;;;;;2.90;1.53;;;18.90;99.90;;;;;;5013341;28;20204;-78
2023/07/29 07:43:03;;;;;;;3.50;1.27;;;19.00;99.90;;;;;;5014339;28;20204;-78
2023/07/29 07:45:29;;;;;;;3.43;1.40;;;19.00;99.90;;;;;;5011827;28;20181;-77
2023/07/29 07:47:54;;;;;;;1.37;1.20;;;19.00;99.90;;;;;;5012909;28;20181;-77
2023/07/29 07:50:20;;;;;;;1.27;1.17;;;19.10;99.90;;;;;;5014133;28;20246;-77
2023/07/29 07:52:46;;;;;;;3.07;1.37;;;19.10;99.90;;;;;;5018443;28;20188;-76
2023/07/29 07:55:11;;;;;;;1.93;1.30;;;19.10;99.90;;;;;;5019357;28;20552;-77
2023/07/29 07:57:37;;;;;;;1.47;1.20;;;19.20;99.90;;;;;;5019586;28;20173;-76
2023/07/29 08:00:04;;;;;;;1.63;1.13;;;19.30;99.90;;;;;;5019297;28;20253;-77
2023/07/29 08:02:30;;;;;;;1.20;1.10;;;19.40;99.90;;;;;;5018218;28;20493;-77
2023/07/29 08:04:55;;;;;;;1.60;1.20;;;19.50;99.90;;;;;;5019564;28;20211;-77
2023/07/29 08:07:21;;;;;;;2.60;0.93;;;19.50;99.90;;;;;;5019342;28;20173;-76
2023/07/29 08:09:46;;;;;;;2.47;0.90;;;19.60;99.90;;;;;;5019552;28;20196;-78
2023/07/29 08:12:12;;;;;;;1.10;1.00;;;19.60;99.90;;;;;;5018403;28;20183;-78
2023/07/29 08:14:37;;;;;;;3.73;1.07;;;19.80;99.90;;;;;;5019420;28;20259;-78
2023/07/29 08:17:03;;;;;;;1.67;0.90;;;19.80;99.90;;;;;;5018082;28;20217;-77
2023/07/29 08:19:29;;;;;;;3.77;1.13;;;19.80;99.90;;;;;;5019527;28;20665;-78
2023/07/29 08:21:54;;;;;;;1.20;1.07;;;19.90;99.90;;;;;;5019179;28;20175;-78
2023/07/29 08:24:20;;;;;;;2.07;1.03;;;20.00;99.90;;;;;;5018031;28;20291;-78
2023/07/29 08:26:45;;;;;;;1.10;0.80;;;20.00;99.90;;;;;;5019262;28;20176;-78
2023/07/29 08:29:12;;;;;;;4.63;1.00;;;19.90;99.90;;;;;;5019313;28;20180;-77
2023/07/29 08:31:37;;;;;;;1.33;0.87;;;20.00;99.90;;;;;;5019333;28;20206;-78
2023/07/29 08:34:03;;;;;;;3.03;0.90;;;20.10;99.90;;;;;;5019163;28;20263;-78
2023/07/29 08:36:28;;;;;;;1.30;0.77;;;20.10;99.90;;;;;;5019195;28;20267;-78
2023/07/29 08:38:54;;;;;;;1.30;1.00;;;20.10;99.90;;;;;;5017788;28;20204;-78
2023/07/29 08:41:27;;;;;;;2.00;0.90;;;20.00;99.90;;;;;;5017757;28;20415;-78
2023/07/29 08:44:11;;;;;;;1.50;0.93;;;20.10;99.90;;;;;;5019631;28;20193;-78
2023/07/29 08:46:39;;;;;;;2.77;1.00;;;20.20;99.90;;;;;;5019335;28;20191;-77
2023/07/29 08:49:05;;;;;;;1.30;0.90;;;20.30;99.90;;;;;;5017560;28;20176;-78
2023/07/29 08:51:31;;;;;;;1.23;0.70;;;20.30;99.90;;;;;;5017545;28;20219;-77
2023/07/29 08:53:58;;;;;;;1.10;0.97;;;20.30;99.90;;;;;;5020039;28;20257;-77
2023/07/29 08:56:25;;;;;;;1.00;0.80;;;20.40;99.90;;;;;;5019135;28;20619;-77
2023/07/29 08:58:51;;;;;;;1.83;0.80;;;20.50;99.90;;;;;;5019671;28;20201;-77
2023/07/29 09:01:17;;;;;;;3.60;1.33;;;20.50;99.90;;;;;;5016003;28;20200;-77
2023/07/29 09:03:42;;;;;;;1.40;1.03;;;20.40;1.00;;;;;;5016087;28;20262;-78
2023/07/29 09:06:08;;;;;;;2.00;0.90;;;20.70;1.00;;;;;;5016152;28;20180;-78
2023/07/29 09:08:34;;;;;;;0.67;0.60;;;20.70;99.90;;;;;;5015226;28;20210;-78
2023/07/29 09:11:00;;;;;;;0.77;0.77;;;20.80;99.90;;;;;;5015382;28;20196;-77
2023/07/29 09:13:26;;;;;;;1.00;0.80;;;20.90;1.00;;;;;;5015829;28;20185;-78
2023/07/29 09:15:56;;;;;;;1.73;1.03;;;20.80;1.00;;;;;;5015712;28;20181;-78
2023/07/29 09:18:22;;;;;;;0.83;0.80;;;21.00;1.00;;;;;;5016428;28;20204;-79
2023/07/29 09:20:48;;;;;;;2.00;0.87;;;20.90;1.00;;;;;;5015238;28;20200;-78
2023/07/29 09:23:14;;;;;;;0.80;0.80;;;20.80;99.90;;;;;;5015458;28;20626;-75
2023/07/29 09:25:40;;;;;;;0.67;0.60;;;20.80;99.90;;;;;;5015359;28;20169;-77
2023/07/29 09:28:11;;;;;;;1.47;0.97;;;20.80;1.00;;;;;;5015298;28;20536;-78
2023/07/29 09:30:42;;;;;;;1.47;0.70;;;20.70;1.00;;;;;;5016819;28;20705;-77
2023/07/29 09:33:09;;;;;;;1.10;1.00;;;20.70;99.90;;;;;;5015374;28;20208;-79
2023/07/29 09:35:36;;;;;;;1.80;0.90;;;20.70;99.90;;;;;;5016692;28;20204;-78
2023/07/29 09:38:03;;;;;;;2.03;1.00;;;20.50;1.00;;;;;;5015695;28;20185;-77
2023/07/29 09:40:38;;;;;;;1.63;0.80;;;20.60;1.00;;;;;;5016993;28;20204;-78
2023/07/29 09:43:04;;;;;;;1.53;0.90;;;20.60;1.00;;;;;;5015511;28;20726;-80
2023/07/29 09:45:32;;;;;;;2.50;0.90;;;20.50;1.00;;;;;;5016609;28;20243;-79
2023/07/29 09:48:01;;;;;;;1.43;1.07;;;20.50;1.00;;;;;;5017492;28;20177;-79
2023/07/29 09:50:27;;;;;;;1.00;0.90;;;20.50;99.90;;;;;;5014105;28;20204;-79
2023/07/29 09:52:55;;;;;;;1.47;1.03;;;20.40;1.00;;;;;;5015297;28;20178;-77
2023/07/29 09:55:24;;;;;;;1.53;1.17;;;20.40;1.00;;;;;;5016147;28;20541;-79
2023/07/29 09:57:57;;;;;;;3.03;1.10;;;20.50;1.00;;;;;;5019253;28;20258;-79
2023/07/29 10:00:23;;;;;;;1.37;1.00;;;20.70;99.90;;;;;;5015590;28;20240;-78
2023/07/29 10:02:50;;;;;;;1.00;0.90;;;20.80;53.80;;;;;;5016712;28;20181;-78
2023/07/29 10:05:16;;;;;;;1.50;1.17;;;20.90;30.00;;;;;;5015374;28;20180;-78
2023/07/29 10:07:41;;;;;;;4.47;1.07;;;20.90;1.00;;;;;;5014683;28;20176;-78
2023/07/29 10:10:08;;;;;;;1.50;0.97;;;21.10;99.90;;;;;;5018782;28;20242;-77
2023/07/29 10:12:35;;;;;;;1.40;1.00;;;21.20;1.00;;;;;;5017106;28;20196;-77
2023/07/29 10:15:04;;;;;;;1.40;1.00;;;21.30;1.00;;;;;;5018489;28;20276;-77
2023/07/29 10:17:31;;;;;;;4.03;1.30;;;21.50;99.90;;;;;;5026586;28;20723;-79
2023/07/29 10:20:00;;;;;;;1.90;1.20;;;21.60;99.90;;;;;;5020222;28;20208;-79
2023/07/29 10:22:32;;;;;;;2.73;0.97;;;21.80;1.00;;;;;;5016367;28;20188;-79
2023/07/29 10:25:07;;;;;;;2.53;0.97;;;21.90;1.00;;;;;;5014684;28;20231;-79
2023/07/29 10:27:43;;;;;;;2.63;1.10;;;21.70;99.90;;;;;;5019006;28;20168;-79
2023/07/29 10:30:12;;;;;;;1.23;0.93;;;21.60;1.00;;;;;;5032760;28;20203;-78
2023/07/29 10:32:38;;;;;;;2.97;1.00;;;21.60;1.00;;;;;;5025843;28;20173;-78
2023/07/29 10:35:04;;;;;;;1.40;1.10;;;21.60;1.00;;;;;;5013604;28;20657;-79
2023/07/29 10:37:30;;;;;;;1.80;1.10;;;21.60;1.00;;;;;;5013751;28;20181;-78
2023/07/29 10:39:56;;;;;;;2.83;1.20;;;21.60;99.90;;;;;;5013986;28;20648;-78
2023/07/29 10:42:22;;;;;;;0.97;0.80;;;21.60;1.00;;;;;;5015405;28;20188;-79
2023/07/29 10:44:49;;;;;;;1.20;1.10;;;21.50;99.90;;;;;;5015071;28;20243;-79
2023/07/29 10:47:26;;;;;;;2.70;1.10;;;21.50;1.00;;;;;;5015323;28;20638;-82
2023/07/29 10:49:59;;;;;;;3.90;1.20;;;21.50;1.00;;;;;;5018302;28;20193;-79
2023/07/29 10:52:40;;;;;;;1.63;1.20;;;21.40;99.90;;;;;;5015493;28;20173;-80
2023/07/29 10:55:33;;;;;;;1.73;1.07;;;21.40;1.00;;;;;;5014551;28;20180;-79
2023/07/29 10:58:18;;;;;;;1.73;1.50;;;21.50;1.00;;;;;;5015937;28;20176;-79
2023/07/29 11:00:45;;;;;;;4.43;1.00;;;21.60;1.00;;;;;;5016199;28;20576;-80
2023/07/29 11:03:14;;;;;;;3.67;1.23;;;21.70;1.00;;;;;;5014333;28;20350;-79
2023/07/29 11:05:53;;;;;;;1.63;1.10;;;21.90;99.90;;;;;;5016297;28;20288;-79
2023/07/29 11:08:29;;;;;;;1.40;1.10;;;22.10;99.90;;;;;;5015441;28;20195;-78
2023/07/29 11:11:13;;;;;;;1.83;1.20;;;22.20;1.00;;;;;;5015797;28;20534;-79
2023/07/29 11:13:38;;;;;;;1.13;1.00;;;22.20;99.90;;;;;;5017770;28;20165;-78
2023/07/29 11:16:05;;;;;;;2.00;1.27;;;22.20;1.00;;;;;;5017613;28;20176;-79
2023/07/29 11:18:33;;;;;;;1.10;1.00;;;22.30;1.00;;;;;;5017425;28;20188;-79
2023/07/29 11:20:59;;;;;;;4.63;1.17;;;22.00;1.00;;;;;;5018354;28;20200;-80
2023/07/29 11:23:33;;;;;;;4.70;1.40;;;21.90;99.90;;;;;;5001492;28;20219;-80
2023/07/29 11:25:59;;;;;;;0.80;0.80;;;21.80;99.90;;;;;;5011079;28;20185;-80
2023/07/29 11:28:26;;;;;;;1.50;1.07;;;21.60;1.00;;;;;;4999303;28;20188;-80
2023/07/29 11:30:53;;;;;;;2.23;1.23;;;21.60;99.90;;;;;;5000314;28;20198;-80
2023/07/29 11:33:20;;;;;;;2.30;1.17;;;21.70;99.90;;;;;;4996888;28;20497;-80
2023/07/29 11:35:46;;;;;;;1.90;0.93;;;21.80;99.90;;;;;;4997291;28;20255;-80
2023/07/29 11:38:15;;;;;;;1.47;1.03;;;21.90;99.90;;;;;;5000069;28;20178;-79
2023/07/29 11:40:41;;;;;;;2.10;1.00;;;22.00;99.90;;;;;;4997638;28;20229;-80
2023/07/29 11:43:06;;;;;;;1.53;1.03;;;22.10;1.00;;;;;;4998917;28;20208;-80
2023/07/29 11:45:33;;;;;;;3.87;1.23;;;22.10;1.00;;;;;;4997804;28;20173;-79
2023/07/29 11:48:00;;;;;;;1.40;1.10;;;22.20;99.90;;;;;;5003824;28;20453;-79
2023/07/29 11:50:26;;;;;;;2.53;1.10;;;22.40;1.00;;;;;;5007078;28;20206;-79
2023/07/29 11:52:52;;;;;;;2.80;1.17;;;22.50;99.90;;;;;;5008329;28;20294;-80
2023/07/29 11:55:19;;;;;;;4.00;0.90;;;22.50;3.30;;;;;;4995966;28;20187;-80
2023/07/29 11:57:50;;;;;;;1.97;1.10;;;22.60;21.80;;;;;;4997199;28;20176;-79
2023/07/29 12:00:18;;;;;;;2.30;1.20;;;22.60;99.90;;;;;;4995070;28;20292;-79
2023/07/29 12:02:45;;;;;;;2.07;1.17;;;22.60;99.90;;;;;;4996455;28;20205;-79
2023/07/29 12:05:11;;;;;;;2.20;1.20;;;22.40;99.90;;;;;;4995601;28;20680;-79
2023/07/29 12:07:41;;;;;;;2.43;1.13;;;22.60;1.00;;;;;;4993829;28;20552;-79
2023/07/29 12:10:07;;;;;;;3.30;1.53;;;22.60;99.90;;;;;;4995804;28;20224;-79
2023/07/29 12:12:32;;;;;;;2.70;0.90;;;22.80;99.90;;;;;;4995938;28;20641;-79
2023/07/29 12:14:58;;;;;;;2.40;1.10;;;22.90;99.90;;;;;;4996439;28;20249;-79
2023/07/29 12:17:23;;;;;;;2.80;1.20;;;23.10;1.00;;;;;;4995671;28;20685;-79
2023/07/29 12:19:49;;;;;;;3.20;1.10;;;23.20;45.80;;;;;;4996670;28;20201;-79
2023/07/29 12:22:19;;;;;;;2.70;1.17;;;23.20;1.00;;;;;;4994741;28;20182;-79
2023/07/29 12:24:45;;;;;;;1.17;1.07;;;23.00;1.00;;;;;;4996452;28;20212;-79
2023/07/29 12:27:12;;;;;;;1.40;1.10;;;22.90;1.00;;;;;;4995815;28;20614;-79
2023/07/29 12:29:46;;;;;;;1.27;1.00;;;22.80;99.90;;;;;;4995237;28;20227;-79
2023/07/29 12:32:12;;;;;;;1.40;1.00;;;23.00;99.90;;;;;;4997508;28;20611;-80
2023/07/29 12:34:39;;;;;;;4.80;1.47;;;23.10;1.00;;;;;;4994215;28;20194;-80
2023/07/29 12:37:05;;;;;;;1.20;1.10;;;23.30;1.00;;;;;;4998272;28;20182;-81
2023/07/29 12:39:33;;;;;;;2.10;1.07;;;23.30;1.00;;;;;;4998867;28;20201;-80
2023/07/29 12:42:00;;;;;;;4.83;1.30;;;23.40;1.00;;;;;;5007984;28;20185;-79
2023/07/29 12:44:30;;;;;;;13.97;2.47;;;23.40;99.90;;;;;;5013539;28;20767;-78
2023/07/29 12:46:55;;;;;;;1.53;1.10;;;23.50;99.90;;;;;;5006021;28;20265;-79